sensor_id;sensor_type;location;lat;lon;timestamp;pressure;altitude;pressure_sealevel;temperature;humidity
76448;BME280;65284;51.040;13.722;2023-06-14T00:02:13;99870.84;;;14.71;60.95
76448;BME280;65284;51.040;13.722;2023-06-14T00:04:40;99873.78;;;14.76;60.90
76448;BME280;65284;51.040;13.722;2023-06-14T00:07:07;99866.31;;;14.71;61.18
76448;BME280;65284;51.040;13.722;2023-06-14T00:09:37;99868.56;;;14.68;61.28
76448;BME280;65284;51.040;13.722;2023-06-14T00:12:04;99865.88;;;14.68;61.39
76448;BME280;65284;51.040;13.722;2023-06-14T00:14:32;99866.06;;;14.88;60.88
76448;BME280;65284;51.040;13.722;2023-06-14T00:16:58;99872.69;;;14.92;60.68
76448;BME280;65284;51.040;13.722;2023-06-14T00:19:25;99860.66;;;14.81;60.85
76448;BME280;65284;51.040;13.722;2023-06-14T00:21:52;99859.13;;;14.72;61.26
76448;BME280;65284;51.040;13.722;2023-06-14T00:24:19;99853.91;;;14.64;61.48
76448;BME280;65284;51.040;13.722;2023-06-14T00:26:45;99861.06;;;14.42;62.24
76448;BME280;65284;51.040;13.722;2023-06-14T00:29:12;99861.41;;;14.17;63.37
76448;BME280;65284;51.040;13.722;2023-06-14T00:31:38;99865.97;;;14.38;62.54
76448;BME280;65284;51.040;13.722;2023-06-14T00:34:05;99853.47;;;14.24;63.26
76448;BME280;65284;51.040;13.722;2023-06-14T00:36:31;99857.63;;;14.26;63.13
76448;BME280;65284;51.040;13.722;2023-06-14T00:38:58;99856.25;;;14.16;63.25
76448;BME280;65284;51.040;13.722;2023-06-14T00:41:24;99856.78;;;14.26;63.19
76448;BME280;65284;51.040;13.722;2023-06-14T00:43:50;99863.25;;;14.17;63.33
76448;BME280;65284;51.040;13.722;2023-06-14T00:46:17;99859.72;;;14.31;63.17
76448;BME280;65284;51.040;13.722;2023-06-14T00:48:45;99860.41;;;14.18;63.29
76448;BME280;65284;51.040;13.722;2023-06-14T00:51:12;99868.00;;;14.00;64.10
76448;BME280;65284;51.040;13.722;2023-06-14T00:53:39;99864.16;;;13.87;64.86
76448;BME280;65284;51.040;13.722;2023-06-14T00:56:07;99859.63;;;13.88;64.60
76448;BME280;65284;51.040;13.722;2023-06-14T00:58:33;99864.22;;;13.94;64.59
76448;BME280;65284;51.040;13.722;2023-06-14T01:01:00;99867.44;;;13.89;64.61
76448;BME280;65284;51.040;13.722;2023-06-14T01:03:26;99859.06;;;13.78;64.87
76448;BME280;65284;51.040;13.722;2023-06-14T01:06:05;99857.97;;;13.57;65.76
76448;BME280;65284;51.040;13.722;2023-06-14T01:08:47;99867.06;;;13.63;65.66
76448;BME280;65284;51.040;13.722;2023-06-14T01:11:32;99863.41;;;13.79;65.21
76448;BME280;65284;51.040;13.722;2023-06-14T01:13:59;99866.09;;;13.79;65.54
76448;BME280;65284;51.040;13.722;2023-06-14T01:16:28;99860.81;;;13.85;64.98
76448;BME280;65284;51.040;13.722;2023-06-14T01:18:55;99860.63;;;13.87;65.07
76448;BME280;65284;51.040;13.722;2023-06-14T01:21:23;99857.88;;;13.80;65.49
76448;BME280;65284;51.040;13.722;2023-06-14T01:23:51;99859.91;;;13.93;64.97
76448;BME280;65284;51.040;13.722;2023-06-14T01:26:21;99859.16;;;13.99;64.51
76448;BME280;65284;51.040;13.722;2023-06-14T01:28:49;99853.09;;;13.91;64.95
76448;BME280;65284;51.040;13.722;2023-06-14T01:31:17;99853.91;;;13.91;65.21
76448;BME280;65284;51.040;13.722;2023-06-14T01:33:46;99853.91;;;13.91;65.00
76448;BME280;65284;51.040;13.722;2023-06-14T01:36:13;99844.25;;;13.75;65.58
76448;BME280;65284;51.040;13.722;2023-06-14T01:38:41;99851.81;;;13.72;65.70
76448;BME280;65284;51.040;13.722;2023-06-14T01:41:09;99849.97;;;13.72;66.00
76448;BME280;65284;51.040;13.722;2023-06-14T01:43:36;99844.91;;;13.62;66.19
76448;BME280;65284;51.040;13.722;2023-06-14T01:46:05;99840.88;;;13.67;66.08
76448;BME280;65284;51.040;13.722;2023-06-14T01:48:32;99842.22;;;13.92;65.21
76448;BME280;65284;51.040;13.722;2023-06-14T01:50:59;99837.72;;;13.78;65.78
76448;BME280;65284;51.040;13.722;2023-06-14T01:53:25;99839.16;;;13.95;65.45
76448;BME280;65284;51.040;13.722;2023-06-14T01:55:52;99846.47;;;13.72;65.86
76448;BME280;65284;51.040;13.722;2023-06-14T01:58:20;99838.28;;;13.58;66.33
76448;BME280;65284;51.040;13.722;2023-06-14T02:00:47;99847.84;;;13.38;67.11
76448;BME280;65284;51.040;13.722;2023-06-14T02:03:14;99849.78;;;13.29;67.39
76448;BME280;65284;51.040;13.722;2023-06-14T02:05:41;99850.44;;;13.46;67.43
76448;BME280;65284;51.040;13.722;2023-06-14T02:08:08;99852.44;;;13.29;67.59
76448;BME280;65284;51.040;13.722;2023-06-14T02:10:34;99857.94;;;13.28;67.70
76448;BME280;65284;51.040;13.722;2023-06-14T02:13:02;99861.84;;;13.40;67.63
76448;BME280;65284;51.040;13.722;2023-06-14T02:15:28;99858.44;;;13.46;67.07
76448;BME280;65284;51.040;13.722;2023-06-14T02:18:01;99862.22;;;13.37;67.76
76448;BME280;65284;51.040;13.722;2023-06-14T02:20:28;99850.44;;;13.46;66.91
76448;BME280;65284;51.040;13.722;2023-06-14T02:22:55;99863.53;;;13.18;68.07
76448;BME280;65284;51.040;13.722;2023-06-14T02:25:21;99857.72;;;13.14;68.24
76448;BME280;65284;51.040;13.722;2023-06-14T02:27:48;99859.22;;;13.17;68.18
76448;BME280;65284;51.040;13.722;2023-06-14T02:30:15;99862.34;;;13.20;68.12
76448;BME280;65284;51.040;13.722;2023-06-14T02:32:42;99868.28;;;13.08;68.46
76448;BME280;65284;51.040;13.722;2023-06-14T02:35:09;99871.72;;;13.16;68.37
76448;BME280;65284;51.040;13.722;2023-06-14T02:37:36;99875.84;;;13.19;68.41
76448;BME280;65284;51.040;13.722;2023-06-14T02:40:04;99877.13;;;13.08;68.66
76448;BME280;65284;51.040;13.722;2023-06-14T02:42:30;99872.78;;;13.07;68.63
76448;BME280;65284;51.040;13.722;2023-06-14T02:44:57;99875.09;;;13.10;68.65
76448;BME280;65284;51.040;13.722;2023-06-14T02:47:23;99879.09;;;12.91;69.28
76448;BME280;65284;51.040;13.722;2023-06-14T02:49:50;99873.66;;;12.85;69.65
76448;BME280;65284;51.040;13.722;2023-06-14T02:52:17;99879.03;;;12.77;69.97
76448;BME280;65284;51.040;13.722;2023-06-14T02:54:43;99875.72;;;12.74;69.93
76448;BME280;65284;51.040;13.722;2023-06-14T02:57:10;99876.47;;;12.83;70.08
76448;BME280;65284;51.040;13.722;2023-06-14T02:59:37;99878.63;;;12.88;69.41
76448;BME280;65284;51.040;13.722;2023-06-14T03:02:03;99879.97;;;13.21;68.36
76448;BME280;65284;51.040;13.722;2023-06-14T03:04:30;99878.41;;;13.12;68.56
76448;BME280;65284;51.040;13.722;2023-06-14T03:07:01;99879.19;;;12.98;69.15
76448;BME280;65284;51.040;13.722;2023-06-14T03:09:29;99877.44;;;12.67;70.46
76448;BME280;65284;51.040;13.722;2023-06-14T03:11:55;99879.44;;;12.65;70.36
76448;BME280;65284;51.040;13.722;2023-06-14T03:14:22;99883.13;;;12.64;70.45
76448;BME280;65284;51.040;13.722;2023-06-14T03:16:48;99881.56;;;12.47;71.09
76448;BME280;65284;51.040;13.722;2023-06-14T03:19:16;99880.47;;;12.33;71.62
76448;BME280;65284;51.040;13.722;2023-06-14T03:21:43;99877.63;;;12.43;71.48
76448;BME280;65284;51.040;13.722;2023-06-14T03:24:11;99882.63;;;12.38;71.66
76448;BME280;65284;51.040;13.722;2023-06-14T03:26:37;99887.28;;;12.36;72.09
76448;BME280;65284;51.040;13.722;2023-06-14T03:29:04;99881.94;;;12.44;71.26
76448;BME280;65284;51.040;13.722;2023-06-14T03:31:31;99891.34;;;12.55;71.59
76448;BME280;65284;51.040;13.722;2023-06-14T03:33:59;99891.53;;;12.53;71.38
76448;BME280;65284;51.040;13.722;2023-06-14T03:36:26;99896.75;;;12.69;71.08
76448;BME280;65284;51.040;13.722;2023-06-14T03:38:52;99891.19;;;12.79;70.49
76448;BME280;65284;51.040;13.722;2023-06-14T03:41:19;99902.91;;;12.93;70.09
76448;BME280;65284;51.040;13.722;2023-06-14T03:43:45;99908.34;;;12.77;70.56
76448;BME280;65284;51.040;13.722;2023-06-14T03:46:12;99916.03;;;12.71;70.82
76448;BME280;65284;51.040;13.722;2023-06-14T03:48:38;99918.69;;;12.71;70.60
76448;BME280;65284;51.040;13.722;2023-06-14T03:51:05;99917.47;;;12.82;70.17
76448;BME280;65284;51.040;13.722;2023-06-14T03:53:31;99921.25;;;12.88;70.33
76448;BME280;65284;51.040;13.722;2023-06-14T03:55:58;99918.25;;;12.91;69.98
76448;BME280;65284;51.040;13.722;2023-06-14T03:58:26;99920.84;;;12.99;70.00
76448;BME280;65284;51.040;13.722;2023-06-14T04:00:52;99925.13;;;13.08;69.54
76448;BME280;65284;51.040;13.722;2023-06-14T04:03:19;99927.72;;;13.16;69.17
76448;BME280;65284;51.040;13.722;2023-06-14T04:05:46;99935.84;;;13.00;69.92
76448;BME280;65284;51.040;13.722;2023-06-14T04:08:15;99934.66;;;13.26;68.63
76448;BME280;65284;51.040;13.722;2023-06-14T04:10:42;99941.69;;;13.18;68.88
76448;BME280;65284;51.040;13.722;2023-06-14T04:13:09;99939.06;;;12.95;69.75
76448;BME280;65284;51.040;13.722;2023-06-14T04:15:39;99940.81;;;13.03;69.75
76448;BME280;65284;51.040;13.722;2023-06-14T04:18:08;99933.69;;;13.18;68.94
76448;BME280;65284;51.040;13.722;2023-06-14T04:20:34;99941.28;;;13.30;68.65
76448;BME280;65284;51.040;13.722;2023-06-14T04:23:14;99947.56;;;13.37;68.59
76448;BME280;65284;51.040;13.722;2023-06-14T04:25:41;99939.91;;;13.34;68.33
76448;BME280;65284;51.040;13.722;2023-06-14T04:28:12;99938.03;;;13.57;68.18
76448;BME280;65284;51.040;13.722;2023-06-14T04:30:38;99940.59;;;13.51;68.24
76448;BME280;65284;51.040;13.722;2023-06-14T04:33:06;99937.81;;;13.44;68.65
76448;BME280;65284;51.040;13.722;2023-06-14T04:35:33;99927.72;;;13.54;68.17
76448;BME280;65284;51.040;13.722;2023-06-14T04:38:02;99933.69;;;13.41;68.22
76448;BME280;65284;51.040;13.722;2023-06-14T04:40:31;99935.78;;;13.08;70.07
76448;BME280;65284;51.040;13.722;2023-06-14T04:42:59;99939.56;;;13.37;69.45
76448;BME280;65284;51.040;13.722;2023-06-14T04:45:27;99934.13;;;13.45;68.95
76448;BME280;65284;51.040;13.722;2023-06-14T04:48:00;99952.97;;;13.29;69.28
76448;BME280;65284;51.040;13.722;2023-06-14T04:50:27;99956.09;;;13.32;69.28
76448;BME280;65284;51.040;13.722;2023-06-14T04:52:55;99965.94;;;13.32;69.02
76448;BME280;65284;51.040;13.722;2023-06-14T04:55:23;99962.03;;;13.19;69.72
76448;BME280;65284;51.040;13.722;2023-06-14T04:57:49;99964.84;;;13.18;69.45
76448;BME280;65284;51.040;13.722;2023-06-14T05:00:20;99972.75;;;13.11;69.89
76448;BME280;65284;51.040;13.722;2023-06-14T05:02:46;99960.97;;;13.29;69.31
76448;BME280;65284;51.040;13.722;2023-06-14T05:05:13;99962.97;;;13.27;69.40
76448;BME280;65284;51.040;13.722;2023-06-14T05:07:42;99966.25;;;13.37;68.94
76448;BME280;65284;51.040;13.722;2023-06-14T05:10:08;99963.22;;;13.40;68.98
76448;BME280;65284;51.040;13.722;2023-06-14T05:12:35;99970.25;;;13.33;69.29
76448;BME280;65284;51.040;13.722;2023-06-14T05:15:02;99978.28;;;13.33;69.12
76448;BME280;65284;51.040;13.722;2023-06-14T05:17:28;99974.66;;;13.26;69.43
76448;BME280;65284;51.040;13.722;2023-06-14T05:19:55;99977.38;;;13.17;69.57
76448;BME280;65284;51.040;13.722;2023-06-14T05:22:22;99989.88;;;13.17;69.26
76448;BME280;65284;51.040;13.722;2023-06-14T05:24:48;99976.81;;;13.22;69.63
76448;BME280;65284;51.040;13.722;2023-06-14T05:27:16;99978.50;;;13.23;69.41
76448;BME280;65284;51.040;13.722;2023-06-14T05:29:43;99982.16;;;13.22;69.70
76448;BME280;65284;51.040;13.722;2023-06-14T05:32:09;99977.72;;;13.14;70.18
76448;BME280;65284;51.040;13.722;2023-06-14T05:34:36;99976.72;;;13.15;69.56
76448;BME280;65284;51.040;13.722;2023-06-14T05:37:02;99979.78;;;13.04;70.13
76448;BME280;65284;51.040;13.722;2023-06-14T05:39:30;99983.88;;;13.15;69.63
76448;BME280;65284;51.040;13.722;2023-06-14T05:41:56;99979.59;;;13.37;69.45
76448;BME280;65284;51.040;13.722;2023-06-14T05:44:23;99983.75;;;13.54;68.66
76448;BME280;65284;51.040;13.722;2023-06-14T05:46:49;99981.53;;;13.43;68.97
76448;BME280;65284;51.040;13.722;2023-06-14T05:49:16;99977.19;;;13.42;69.40
76448;BME280;65284;51.040;13.722;2023-06-14T05:51:42;99987.50;;;13.45;69.11
76448;BME280;65284;51.040;13.722;2023-06-14T05:54:08;99986.06;;;13.57;68.89
76448;BME280;65284;51.040;13.722;2023-06-14T05:56:35;99990.16;;;13.83;68.42
76448;BME280;65284;51.040;13.722;2023-06-14T05:59:01;99998.81;;;13.85;68.04
76448;BME280;65284;51.040;13.722;2023-06-14T06:01:28;99984.38;;;13.94;67.59
76448;BME280;65284;51.040;13.722;2023-06-14T06:03:54;99985.03;;;13.96;67.51
76448;BME280;65284;51.040;13.722;2023-06-14T06:06:21;99978.75;;;14.04;67.21
76448;BME280;65284;51.040;13.722;2023-06-14T06:08:48;99987.41;;;13.91;67.72
76448;BME280;65284;51.040;13.722;2023-06-14T06:11:14;99985.47;;;14.15;67.16
76448;BME280;65284;51.040;13.722;2023-06-14T06:13:41;99979.50;;;14.13;67.04
76448;BME280;65284;51.040;13.722;2023-06-14T06:16:07;99993.41;;;14.08;67.33
76448;BME280;65284;51.040;13.722;2023-06-14T06:18:34;99989.44;;;14.19;67.24
76448;BME280;65284;51.040;13.722;2023-06-14T06:21:01;100004.34;;;14.28;66.79
76448;BME280;65284;51.040;13.722;2023-06-14T06:23:29;100011.53;;;14.13;66.85
76448;BME280;65284;51.040;13.722;2023-06-14T06:25:55;100016.84;;;13.83;67.60
76448;BME280;65284;51.040;13.722;2023-06-14T06:28:22;100020.19;;;14.00;67.54
76448;BME280;65284;51.040;13.722;2023-06-14T06:30:48;100009.31;;;14.31;66.50
76448;BME280;65284;51.040;13.722;2023-06-14T06:33:15;100011.00;;;14.32;66.60
76448;BME280;65284;51.040;13.722;2023-06-14T06:35:41;100005.91;;;14.37;65.69
76448;BME280;65284;51.040;13.722;2023-06-14T06:38:09;100020.28;;;14.36;65.98
76448;BME280;65284;51.040;13.722;2023-06-14T06:40:36;100033.72;;;14.13;66.75
76448;BME280;65284;51.040;13.722;2023-06-14T06:43:03;100025.34;;;14.31;66.81
76448;BME280;65284;51.040;13.722;2023-06-14T06:45:29;100017.97;;;14.33;66.38
76448;BME280;65284;51.040;13.722;2023-06-14T06:47:56;100021.47;;;14.48;66.04
76448;BME280;65284;51.040;13.722;2023-06-14T06:50:23;100014.59;;;14.54;66.05
76448;BME280;65284;51.040;13.722;2023-06-14T06:52:51;100021.19;;;14.73;65.86
76448;BME280;65284;51.040;13.722;2023-06-14T06:55:17;100016.56;;;14.82;65.46
76448;BME280;65284;51.040;13.722;2023-06-14T06:57:45;100006.47;;;14.98;65.08
76448;BME280;65284;51.040;13.722;2023-06-14T07:00:11;100012.72;;;15.06;65.02
76448;BME280;65284;51.040;13.722;2023-06-14T07:02:39;100009.13;;;15.20;64.61
76448;BME280;65284;51.040;13.722;2023-06-14T07:05:06;100006.22;;;15.15;64.14
76448;BME280;65284;51.040;13.722;2023-06-14T07:07:34;100009.59;;;15.23;63.75
76448;BME280;65284;51.040;13.722;2023-06-14T07:10:00;100006.41;;;15.35;63.64
76448;BME280;65284;51.040;13.722;2023-06-14T07:12:31;100007.88;;;15.37;63.15
76448;BME280;65284;51.040;13.722;2023-06-14T07:14:59;100013.47;;;15.42;62.94
76448;BME280;65284;51.040;13.722;2023-06-14T07:17:26;100016.03;;;15.51;63.01
76448;BME280;65284;51.040;13.722;2023-06-14T07:19:53;100023.53;;;15.62;62.74
76448;BME280;65284;51.040;13.722;2023-06-14T07:22:20;100016.72;;;15.59;62.20
76448;BME280;65284;51.040;13.722;2023-06-14T07:24:46;100018.19;;;15.62;61.99
76448;BME280;65284;51.040;13.722;2023-06-14T07:27:13;100014.91;;;15.66;61.96
76448;BME280;65284;51.040;13.722;2023-06-14T07:29:41;100009.44;;;15.75;61.73
76448;BME280;65284;51.040;13.722;2023-06-14T07:32:07;100014.66;;;15.83;61.26
76448;BME280;65284;51.040;13.722;2023-06-14T07:34:33;100014.38;;;15.71;61.04
76448;BME280;65284;51.040;13.722;2023-06-14T07:37:00;100010.66;;;15.72;61.41
76448;BME280;65284;51.040;13.722;2023-06-14T07:39:26;100017.78;;;15.86;60.80
76448;BME280;65284;51.040;13.722;2023-06-14T07:41:53;100011.97;;;16.11;60.85
76448;BME280;65284;51.040;13.722;2023-06-14T07:44:19;100017.53;;;16.09;59.46
76448;BME280;65284;51.040;13.722;2023-06-14T07:46:46;100019.34;;;16.09;59.30
76448;BME280;65284;51.040;13.722;2023-06-14T07:49:15;100020.88;;;16.18;58.78
76448;BME280;65284;51.040;13.722;2023-06-14T07:51:42;100017.00;;;16.27;56.64
76448;BME280;65284;51.040;13.722;2023-06-14T07:54:10;100019.13;;;16.38;55.92
76448;BME280;65284;51.040;13.722;2023-06-14T07:56:37;100017.09;;;16.47;55.73
76448;BME280;65284;51.040;13.722;2023-06-14T07:59:03;100015.28;;;16.54;54.62
76448;BME280;65284;51.040;13.722;2023-06-14T08:01:30;100019.63;;;16.62;53.60
76448;BME280;65284;51.040;13.722;2023-06-14T08:03:56;100023.19;;;16.69;53.61
76448;BME280;65284;51.040;13.722;2023-06-14T08:06:23;100016.88;;;16.83;53.76
76448;BME280;65284;51.040;13.722;2023-06-14T08:08:50;100021.88;;;17.00;53.74
76448;BME280;65284;51.040;13.722;2023-06-14T08:11:16;100025.19;;;17.02;53.82
76448;BME280;65284;51.040;13.722;2023-06-14T08:13:43;100024.75;;;16.98;53.55
76448;BME280;65284;51.040;13.722;2023-06-14T08:16:09;100031.69;;;16.79;52.26
76448;BME280;65284;51.040;13.722;2023-06-14T08:18:37;100032.97;;;16.83;53.15
76448;BME280;65284;51.040;13.722;2023-06-14T08:21:03;100036.38;;;16.71;52.87
76448;BME280;65284;51.040;13.722;2023-06-14T08:23:30;100033.28;;;16.74;53.10
76448;BME280;65284;51.040;13.722;2023-06-14T08:25:56;100024.81;;;16.64;52.35
76448;BME280;65284;51.040;13.722;2023-06-14T08:28:24;100030.06;;;16.78;53.32
76448;BME280;65284;51.040;13.722;2023-06-14T08:30:50;100027.88;;;17.02;52.88
76448;BME280;65284;51.040;13.722;2023-06-14T08:33:17;100024.31;;;16.88;52.62
76448;BME280;65284;51.040;13.722;2023-06-14T08:35:44;100026.81;;;16.96;52.15
76448;BME280;65284;51.040;13.722;2023-06-14T08:38:11;100023.16;;;17.17;52.31
76448;BME280;65284;51.040;13.722;2023-06-14T08:40:39;100015.94;;;17.24;52.34
76448;BME280;65284;51.040;13.722;2023-06-14T08:43:07;100020.28;;;17.59;51.77
76448;BME280;65284;51.040;13.722;2023-06-14T08:45:34;100015.53;;;17.74;50.58
76448;BME280;65284;51.040;13.722;2023-06-14T08:48:01;100010.38;;;17.59;49.45
76448;BME280;65284;51.040;13.722;2023-06-14T08:50:28;100002.75;;;17.49;49.90
76448;BME280;65284;51.040;13.722;2023-06-14T08:53:01;100008.94;;;17.50;49.32
76448;BME280;65284;51.040;13.722;2023-06-14T08:55:30;100005.81;;;17.26;49.57
76448;BME280;65284;51.040;13.722;2023-06-14T08:58:02;100024.81;;;17.45;49.17
76448;BME280;65284;51.040;13.722;2023-06-14T09:00:30;100017.41;;;17.60;49.79
76448;BME280;65284;51.040;13.722;2023-06-14T09:02:57;100029.41;;;17.51;49.18
76448;BME280;65284;51.040;13.722;2023-06-14T09:05:25;100011.41;;;17.32;49.52
76448;BME280;65284;51.040;13.722;2023-06-14T09:07:53;100018.78;;;17.03;49.60
76448;BME280;65284;51.040;13.722;2023-06-14T09:10:21;100026.06;;;17.36;49.45
76448;BME280;65284;51.040;13.722;2023-06-14T09:12:48;100033.50;;;17.47;49.60
76448;BME280;65284;51.040;13.722;2023-06-14T09:15:15;100031.44;;;17.56;48.40
76448;BME280;65284;51.040;13.722;2023-06-14T09:17:43;100036.41;;;17.65;48.22
76448;BME280;65284;51.040;13.722;2023-06-14T09:20:09;100028.16;;;17.73;47.26
76448;BME280;65284;51.040;13.722;2023-06-14T09:22:37;100029.41;;;17.91;47.44
76448;BME280;65284;51.040;13.722;2023-06-14T09:25:05;100032.69;;;18.06;46.95
76448;BME280;65284;51.040;13.722;2023-06-14T09:27:32;100028.13;;;18.20;46.52
76448;BME280;65284;51.040;13.722;2023-06-14T09:30:03;100023.56;;;18.34;46.71
76448;BME280;65284;51.040;13.722;2023-06-14T09:32:29;100026.63;;;18.31;46.55
76448;BME280;65284;51.040;13.722;2023-06-14T09:34:56;100021.81;;;18.53;46.80
76448;BME280;65284;51.040;13.722;2023-06-14T09:37:30;100020.50;;;18.69;46.79
76448;BME280;65284;51.040;13.722;2023-06-14T09:39:58;100023.34;;;18.87;46.75
76448;BME280;65284;51.040;13.722;2023-06-14T09:42:24;100029.53;;;18.94;46.04
76448;BME280;65284;51.040;13.722;2023-06-14T09:44:55;100021.06;;;18.91;45.38
76448;BME280;65284;51.040;13.722;2023-06-14T09:47:25;100020.84;;;18.92;45.69
76448;BME280;65284;51.040;13.722;2023-06-14T09:49:52;100016.63;;;19.09;45.82
76448;BME280;65284;51.040;13.722;2023-06-14T09:52:21;100013.19;;;19.27;46.06
76448;BME280;65284;51.040;13.722;2023-06-14T09:54:49;100015.13;;;19.45;45.71
76448;BME280;65284;51.040;13.722;2023-06-14T09:57:20;100020.06;;;19.48;45.15
76448;BME280;65284;51.040;13.722;2023-06-14T09:59:48;100011.06;;;19.36;44.94
76448;BME280;65284;51.040;13.722;2023-06-14T10:02:22;100002.28;;;19.47;45.00
76448;BME280;65284;51.040;13.722;2023-06-14T10:04:57;99996.63;;;19.55;45.53
76448;BME280;65284;51.040;13.722;2023-06-14T10:07:28;100012.31;;;19.65;45.34
76448;BME280;65284;51.040;13.722;2023-06-14T10:09:56;100013.66;;;19.49;45.59
76448;BME280;65284;51.040;13.722;2023-06-14T10:12:23;100021.13;;;19.16;46.32
76448;BME280;65284;51.040;13.722;2023-06-14T10:14:51;100018.00;;;19.19;46.84
76448;BME280;65284;51.040;13.722;2023-06-14T10:20:32;100019.63;;;18.88;47.07
76448;BME280;65284;51.040;13.722;2023-06-14T10:23:21;100013.59;;;18.99;47.35
76448;BME280;65284;51.040;13.722;2023-06-14T10:25:57;100008.34;;;19.04;47.41
76448;BME280;65284;51.040;13.722;2023-06-14T10:28:23;100004.53;;;19.19;47.64
76448;BME280;65284;51.040;13.722;2023-06-14T10:31:02;100009.06;;;19.25;47.95
76448;BME280;65284;51.040;13.722;2023-06-14T10:33:36;99991.63;;;19.02;47.50
76448;BME280;65284;51.040;13.722;2023-06-14T10:36:26;100005.66;;;18.59;48.85
76448;BME280;65284;51.040;13.722;2023-06-14T10:39:12;100020.19;;;18.52;48.82
76448;BME280;65284;51.040;13.722;2023-06-14T10:41:41;100011.00;;;18.73;48.51
76448;BME280;65284;51.040;13.722;2023-06-14T10:44:35;100021.56;;;18.68;48.28
76448;BME280;65284;51.040;13.722;2023-06-14T10:47:07;100010.56;;;18.82;48.22
76448;BME280;65284;51.040;13.722;2023-06-14T10:49:44;100003.41;;;19.01;48.53
76448;BME280;65284;51.040;13.722;2023-06-14T10:52:14;100005.63;;;19.11;47.90
76448;BME280;65284;51.040;13.722;2023-06-14T10:57:53;100009.31;;;18.85;48.90
76448;BME280;65284;51.040;13.722;2023-06-14T11:00:27;100001.75;;;19.00;48.83
76448;BME280;65284;51.040;13.722;2023-06-14T11:05:56;99994.31;;;19.02;48.48
76448;BME280;65284;51.040;13.722;2023-06-14T11:11:06;99991.31;;;19.17;48.02
76448;BME280;65284;51.040;13.722;2023-06-14T11:13:33;99994.78;;;18.86;48.82
76448;BME280;65284;51.040;13.722;2023-06-14T11:16:00;99986.81;;;19.04;48.88
76448;BME280;65284;51.040;13.722;2023-06-14T11:18:28;99994.63;;;19.13;48.72
76448;BME280;65284;51.040;13.722;2023-06-14T11:20:54;99981.44;;;19.04;48.95
76448;BME280;65284;51.040;13.722;2023-06-14T11:23:21;99987.09;;;18.96;48.84
76448;BME280;65284;51.040;13.722;2023-06-14T11:25:52;99988.44;;;19.12;49.17
76448;BME280;65284;51.040;13.722;2023-06-14T11:28:19;99989.94;;;19.01;49.89
76448;BME280;65284;51.040;13.722;2023-06-14T11:30:48;99986.91;;;18.91;50.07
76448;BME280;65284;51.040;13.722;2023-06-14T11:33:17;99988.72;;;18.97;50.27
76448;BME280;65284;51.040;13.722;2023-06-14T11:35:44;99989.47;;;18.79;50.97
76448;BME280;65284;51.040;13.722;2023-06-14T11:38:12;99986.97;;;18.84;51.19
76448;BME280;65284;51.040;13.722;2023-06-14T11:40:39;99992.28;;;18.91;50.97
76448;BME280;65284;51.040;13.722;2023-06-14T11:43:05;99988.94;;;18.96;50.80
76448;BME280;65284;51.040;13.722;2023-06-14T11:45:32;99996.81;;;18.97;50.90
76448;BME280;65284;51.040;13.722;2023-06-14T11:47:58;99989.34;;;18.99;50.66
76448;BME280;65284;51.040;13.722;2023-06-14T11:50:26;99994.31;;;19.02;50.47
76448;BME280;65284;51.040;13.722;2023-06-14T11:52:57;99987.63;;;19.12;50.42
76448;BME280;65284;51.040;13.722;2023-06-14T11:55:26;99985.19;;;19.03;51.01
76448;BME280;65284;51.040;13.722;2023-06-14T11:57:55;99994.03;;;18.79;51.61
76448;BME280;65284;51.040;13.722;2023-06-14T12:00:25;99987.81;;;18.72;52.26
76448;BME280;65284;51.040;13.722;2023-06-14T12:02:54;99982.94;;;18.55;52.89
76448;BME280;65284;51.040;13.722;2023-06-14T12:05:22;99979.72;;;18.72;52.83
76448;BME280;65284;51.040;13.722;2023-06-14T12:07:50;99981.16;;;18.81;52.42
76448;BME280;65284;51.040;13.722;2023-06-14T12:10:19;99983.34;;;18.97;52.28
76448;BME280;65284;51.040;13.722;2023-06-14T12:12:46;99991.06;;;19.19;51.67
76448;BME280;65284;51.040;13.722;2023-06-14T12:15:12;99985.09;;;19.17;50.86
76448;BME280;65284;51.040;13.722;2023-06-14T12:17:39;99987.63;;;19.12;50.84
76448;BME280;65284;51.040;13.722;2023-06-14T12:20:12;99989.38;;;19.24;50.25
76448;BME280;65284;51.040;13.722;2023-06-14T12:22:52;99991.13;;;19.37;50.66
76448;BME280;65284;51.040;13.722;2023-06-14T12:25:33;99987.06;;;19.28;50.85
76448;BME280;65284;51.040;13.722;2023-06-14T12:28:05;99984.50;;;19.40;50.95
76448;BME280;65284;51.040;13.722;2023-06-14T12:30:33;99986.75;;;19.43;51.31
76448;BME280;65284;51.040;13.722;2023-06-14T12:33:01;99980.81;;;19.34;51.29
76448;BME280;65284;51.040;13.722;2023-06-14T12:35:28;99987.44;;;19.38;50.95
76448;BME280;65284;51.040;13.722;2023-06-14T12:37:55;99998.63;;;19.35;51.29
76448;BME280;65284;51.040;13.722;2023-06-14T12:40:22;99990.69;;;19.40;51.21
76448;BME280;65284;51.040;13.722;2023-06-14T12:42:49;99980.34;;;19.44;51.41
76448;BME280;65284;51.040;13.722;2023-06-14T12:45:16;99973.41;;;19.80;51.00
76448;BME280;65284;51.040;13.722;2023-06-14T12:47:43;99965.56;;;19.96;50.69
76448;BME280;65284;51.040;13.722;2023-06-14T12:50:10;99968.28;;;20.33;50.18
76448;BME280;65284;51.040;13.722;2023-06-14T12:52:36;99972.53;;;20.22;50.49
76448;BME280;65284;51.040;13.722;2023-06-14T12:55:06;99985.50;;;20.14;50.21
76448;BME280;65284;51.040;13.722;2023-06-14T12:57:33;99972.47;;;19.42;51.23
76448;BME280;65284;51.040;13.722;2023-06-14T13:00:03;99963.50;;;19.48;51.48
76448;BME280;65284;51.040;13.722;2023-06-14T13:02:31;99965.88;;;19.38;51.67